createdAt,value
2023-01-27T00:00:19.586Z,43.60
2023-01-27T00:02:48.793Z,42.90
2023-01-27T00:05:17.527Z,42.70
2023-01-27T00:07:48.643Z,40.10
2023-01-27T00:10:19.461Z,42.20
2023-01-27T00:13:07.065Z,41.40
2023-01-27T00:15:35.860Z,40.80
2023-01-27T00:18:05.320Z,38.80
2023-01-27T00:20:52.762Z,36.80
2023-01-27T00:23:42.184Z,36.30
2023-01-27T00:26:12.411Z,38.00
2023-01-27T00:28:42.544Z,35.80
2023-01-27T00:31:30.835Z,37.40
2023-01-27T00:34:02.255Z,33.50
2023-01-27T00:36:31.370Z,39.60
2023-01-27T00:39:00.022Z,39.90
2023-01-27T00:41:29.061Z,35.40
2023-01-27T00:43:57.443Z,33.90
2023-01-27T00:46:26.012Z,34.70
2023-01-27T00:48:55.092Z,33.70
2023-01-27T00:51:23.778Z,30.30
2023-01-27T00:53:52.242Z,29.90
2023-01-27T00:56:20.947Z,26.70
2023-01-27T00:58:49.791Z,28.50
2023-01-27T01:01:18.783Z,27.60
2023-01-27T01:03:47.950Z,25.60
2023-01-27T01:06:17.740Z,25.00
2023-01-27T01:08:46.310Z,20.30
2023-01-27T01:11:15.662Z,22.90
2023-01-27T01:13:44.744Z,23.30
2023-01-27T01:16:18.142Z,27.60
2023-01-27T01:21:15.583Z,28.40
2023-01-27T01:23:46.829Z,30.70
2023-01-27T01:26:16.598Z,35.80
2023-01-27T01:28:45.694Z,40.40
2023-01-27T01:31:16.255Z,35.40
2023-01-27T01:33:44.920Z,37.60
2023-01-27T01:36:15.581Z,36.70
2023-01-27T01:38:44.275Z,31.70
2023-01-27T01:41:15.474Z,33.30
2023-01-27T01:43:43.988Z,31.60
2023-01-27T01:46:14.299Z,33.20
2023-01-27T01:49:00.322Z,33.50
2023-01-27T01:51:46.999Z,32.40
2023-01-27T01:54:27.305Z,32.60
2023-01-27T01:57:05.383Z,33.00
2023-01-27T01:59:39.353Z,33.80
2023-01-27T02:02:10.402Z,32.60
2023-01-27T02:04:51.819Z,36.20
2023-01-27T02:07:22.838Z,34.10
2023-01-27T02:09:55.005Z,33.50
2023-01-27T02:12:23.466Z,31.20
2023-01-27T02:14:51.959Z,34.10
2023-01-27T02:17:23.102Z,33.70
2023-01-27T02:19:58.575Z,36.50
2023-01-27T02:22:45.085Z,36.20
2023-01-27T02:25:29.979Z,30.30
2023-01-27T02:27:58.717Z,29.70
2023-01-27T02:30:28.764Z,30.70
2023-01-27T02:32:57.186Z,27.40
2023-01-27T02:35:44.720Z,31.40
2023-01-27T02:38:14.304Z,35.70
2023-01-27T02:40:44.326Z,32.20
2023-01-27T02:43:14.474Z,29.20
2023-01-27T02:45:43.179Z,34.40
2023-01-27T02:48:11.739Z,31.30
2023-01-27T02:50:43.058Z,29.90
2023-01-27T02:53:12.515Z,28.90
2023-01-27T02:55:41.049Z,31.90
2023-01-27T02:58:11.635Z,32.40
2023-01-27T03:00:48.352Z,30.90
2023-01-27T03:03:16.840Z,29.00
2023-01-27T03:05:46.328Z,29.00
2023-01-27T03:08:14.954Z,26.90
2023-01-27T03:10:43.848Z,30.40
2023-01-27T03:13:12.650Z,28.90
2023-01-27T03:16:00.184Z,29.60
2023-01-27T03:18:28.871Z,27.60
2023-01-27T03:21:01.724Z,26.60
2023-01-27T03:23:30.243Z,26.60
2023-01-27T03:25:58.612Z,26.60
2023-01-27T03:28:27.472Z,25.40
2023-01-27T03:31:20.320Z,25.40
2023-01-27T03:33:54.788Z,23.20
2023-01-27T03:36:48.080Z,23.90
2023-01-27T03:39:36.223Z,24.10
2023-01-27T03:42:23.659Z,24.20
2023-01-27T03:45:11.371Z,24.50
2023-01-27T03:47:40.071Z,25.70
2023-01-27T03:50:14.007Z,22.10
2023-01-27T03:53:02.561Z,27.10
2023-01-27T03:55:31.853Z,24.60
2023-01-27T03:58:30.520Z,22.30
2023-01-27T04:01:00.665Z,20.70
2023-01-27T04:03:51.245Z,20.90
2023-01-27T04:06:43.515Z,21.30
2023-01-27T04:09:12.929Z,23.80
2023-01-27T04:11:56.607Z,24.20
2023-01-27T04:14:28.658Z,25.90
2023-01-27T04:17:07.799Z,25.90
2023-01-27T04:19:36.874Z,27.70
2023-01-27T04:22:05.523Z,31.80
2023-01-27T04:24:34.047Z,32.00
2023-01-27T04:27:13.337Z,33.00
2023-01-27T04:29:42.749Z,34.40
2023-01-27T04:32:12.922Z,37.30
2023-01-27T04:34:41.531Z,38.60
2023-01-27T04:37:10.437Z,38.10
2023-01-27T04:39:42.060Z,40.40
2023-01-27T04:42:11.085Z,40.30
2023-01-27T04:44:39.573Z,40.20
2023-01-27T04:47:09.034Z,45.70
2023-01-27T04:49:37.658Z,42.70
2023-01-27T04:52:06.074Z,33.50
2023-01-27T04:54:34.734Z,34.70
2023-01-27T04:57:03.999Z,34.60
2023-01-27T04:59:32.597Z,37.20
2023-01-27T05:02:01.277Z,35.20
2023-01-27T05:04:31.417Z,31.00
2023-01-27T05:07:00.128Z,30.10
2023-01-27T05:09:29.239Z,30.60
2023-01-27T05:11:57.768Z,31.40
2023-01-27T05:14:26.880Z,30.90
2023-01-27T05:16:55.954Z,31.40
2023-01-27T05:19:24.418Z,35.90
2023-01-27T05:21:53.283Z,36.40
2023-01-27T05:24:21.711Z,36.20
2023-01-27T05:26:53.761Z,41.30
2023-01-27T05:29:22.163Z,43.90
2023-01-27T05:31:50.708Z,41.60
2023-01-27T05:34:19.283Z,43.60
2023-01-27T05:36:48.346Z,48.50
2023-01-27T05:39:17.219Z,42.90
2023-01-27T05:41:45.823Z,45.30
2023-01-27T05:44:14.754Z,45.40
2023-01-27T05:46:43.338Z,49.50
2023-01-27T05:49:11.795Z,54.00
2023-01-27T05:51:40.337Z,50.10
2023-01-27T05:54:09.453Z,52.60
2023-01-27T05:56:38.215Z,53.70
2023-01-27T05:59:07.087Z,51.00
2023-01-27T06:01:37.731Z,45.60
2023-01-27T06:04:06.161Z,42.40
2023-01-27T06:06:34.581Z,41.20
2023-01-27T06:09:04.172Z,55.60
2023-01-27T06:11:33.228Z,41.80
2023-01-27T06:14:02.905Z,48.90
2023-01-27T06:16:32.000Z,46.60
2023-01-27T06:19:00.463Z,44.40
2023-01-27T06:21:29.712Z,47.90
2023-01-27T06:23:58.694Z,45.40
2023-01-27T06:26:27.197Z,43.80
2023-01-27T06:28:57.942Z,41.00
2023-01-27T06:31:27.767Z,38.10
2023-01-27T06:33:56.599Z,36.40
2023-01-27T06:36:25.089Z,34.10
2023-01-27T06:38:53.643Z,34.70
2023-01-27T06:41:22.210Z,34.60
2023-01-27T06:43:53.290Z,30.90
2023-01-27T06:46:21.722Z,32.30
2023-01-27T06:48:54.135Z,35.60
2023-01-27T06:51:23.232Z,35.50
2023-01-27T06:53:51.625Z,34.60
2023-01-27T06:56:19.967Z,34.50
2023-01-27T06:58:48.583Z,36.10
2023-01-27T07:01:17.643Z,48.60
2023-01-27T07:03:46.508Z,41.50
2023-01-27T07:06:16.403Z,41.70
2023-01-27T07:08:47.749Z,39.70
2023-01-27T07:11:16.171Z,41.80
2023-01-27T07:13:44.847Z,37.70
2023-01-27T07:16:13.365Z,36.10
2023-01-27T07:18:41.907Z,33.30
2023-01-27T07:21:10.496Z,36.70
2023-01-27T07:23:39.027Z,33.20
2023-01-27T07:26:19.326Z,36.30
2023-01-27T07:28:53.420Z,37.80
2023-01-27T07:31:22.208Z,35.10
2023-01-27T07:33:53.767Z,34.80
2023-01-27T07:36:22.433Z,36.90
2023-01-27T07:38:51.147Z,37.60
2023-01-27T07:41:19.818Z,37.40
2023-01-27T07:43:49.745Z,38.00
2023-01-27T07:46:20.269Z,42.40
2023-01-27T07:48:48.852Z,41.90
2023-01-27T07:51:18.530Z,51.90
2023-01-27T07:53:47.295Z,53.20
2023-01-27T07:56:16.083Z,55.20
2023-01-27T07:58:46.002Z,51.60
2023-01-27T08:01:15.376Z,48.30
2023-01-27T08:03:43.801Z,47.90
2023-01-27T08:06:12.772Z,51.00
2023-01-27T08:08:42.239Z,62.60
2023-01-27T08:11:13.272Z,60.30
2023-01-27T08:13:42.436Z,51.30
2023-01-27T08:16:13.330Z,49.60
2023-01-27T08:18:45.015Z,53.60
2023-01-27T08:21:13.735Z,53.30
2023-01-27T08:23:42.271Z,51.70
2023-01-27T08:26:10.933Z,48.80
2023-01-27T08:28:41.161Z,50.80
2023-01-27T08:31:10.739Z,46.40
2023-01-27T08:33:39.521Z,43.00
2023-01-27T08:36:10.922Z,44.60
2023-01-27T08:38:39.410Z,50.30
2023-01-27T08:41:11.160Z,49.50
2023-01-27T08:43:40.259Z,49.00
2023-01-27T08:46:09.173Z,45.80
2023-01-27T08:48:38.437Z,52.90
2023-01-27T08:51:07.729Z,66.70
2023-01-27T08:53:37.315Z,71.90
2023-01-27T08:56:08.394Z,62.50
2023-01-27T08:58:37.064Z,70.90
2023-01-27T09:01:05.979Z,74.40
2023-01-27T09:03:35.166Z,90.90
2023-01-27T09:06:05.337Z,65.30
2023-01-27T09:08:34.214Z,52.20
2023-01-27T09:11:13.211Z,56.40
2023-01-27T09:13:41.822Z,52.10
2023-01-27T09:16:10.363Z,53.00
2023-01-27T09:18:38.915Z,45.50
2023-01-27T09:21:07.697Z,38.60
2023-01-27T09:23:36.785Z,39.70
2023-01-27T09:26:05.788Z,36.60
2023-01-27T09:28:34.134Z,41.20
2023-01-27T09:31:02.724Z,37.70
2023-01-27T09:33:31.187Z,41.50
2023-01-27T09:36:05.708Z,43.80
2023-01-27T09:38:36.796Z,43.20
2023-01-27T09:42:03.306Z,36.30
2023-01-27T09:44:35.223Z,34.50
2023-01-27T09:47:37.011Z,33.70
2023-01-27T09:50:13.646Z,32.50
2023-01-27T09:53:16.947Z,29.80
2023-01-27T09:55:45.355Z,30.60
2023-01-27T09:58:33.561Z,31.70
2023-01-27T10:01:02.016Z,30.80
2023-01-27T10:03:34.148Z,32.30
2023-01-27T10:06:21.349Z,32.10
2023-01-27T10:09:03.190Z,28.40
2023-01-27T10:11:47.243Z,27.20
2023-01-27T10:14:54.685Z,29.70
2023-01-27T10:17:53.912Z,29.80
2023-01-27T10:20:34.647Z,32.90
2023-01-27T10:23:03.208Z,32.10
2023-01-27T10:25:55.325Z,34.30
2023-01-27T10:28:24.873Z,31.40
2023-01-27T10:31:02.152Z,33.40
2023-01-27T10:33:56.208Z,37.50
2023-01-27T10:36:36.095Z,35.60
2023-01-27T10:39:10.526Z,37.20
2023-01-27T10:41:49.280Z,39.00
2023-01-27T10:44:49.864Z,40.10
2023-01-27T10:47:28.507Z,43.00
2023-01-27T10:50:00.079Z,50.50
2023-01-27T10:52:55.618Z,41.60
2023-01-27T10:55:37.509Z,34.70
2023-01-27T10:58:21.567Z,30.20
2023-01-27T11:03:58.977Z,28.20
2023-01-27T11:06:30.130Z,32.80
2023-01-27T11:09:27.276Z,29.10
2023-01-27T11:11:59.925Z,33.60
2023-01-27T11:14:34.599Z,31.20
2023-01-27T11:17:41.771Z,32.40
2023-01-27T11:20:35.511Z,31.60
2023-01-27T11:23:10.178Z,28.70
2023-01-27T11:25:45.306Z,28.40
2023-01-27T11:28:16.862Z,29.50
2023-01-27T11:31:17.114Z,29.20
2023-01-27T11:33:52.122Z,28.50
2023-01-27T11:36:20.557Z,32.70
2023-01-27T11:38:49.009Z,30.30
2023-01-27T11:41:17.922Z,30.80
2023-01-27T11:43:46.358Z,27.50
2023-01-27T11:46:24.026Z,27.30
2023-01-27T11:48:56.226Z,28.00
2023-01-27T11:51:26.446Z,27.50
2023-01-27T11:54:18.419Z,27.00
2023-01-27T11:56:48.353Z,27.30
2023-01-27T11:59:19.403Z,23.50
2023-01-27T12:04:45.635Z,23.70
2023-01-27T12:07:26.477Z,26.50
2023-01-27T12:09:58.602Z,24.30
2023-01-27T12:12:28.064Z,22.00
2023-01-27T12:14:58.152Z,23.10
2023-01-27T12:17:30.660Z,24.20
2023-01-27T12:20:22.307Z,20.10
2023-01-27T12:22:53.207Z,21.70
2023-01-27T12:25:32.631Z,18.90
2023-01-27T12:28:04.788Z,21.60
2023-01-27T12:30:34.597Z,20.60
2023-01-27T12:33:15.383Z,20.20
2023-01-27T12:35:43.853Z,21.10
2023-01-27T12:38:15.981Z,21.90
2023-01-27T12:40:46.892Z,19.40
2023-01-27T12:43:20.343Z,20.00
2023-01-27T12:46:03.367Z,22.20
2023-01-27T12:48:33.267Z,17.60
2023-01-27T12:51:15.224Z,17.50
2023-01-27T12:53:44.465Z,17.10
2023-01-27T12:56:18.619Z,18.60
2023-01-27T12:59:00.045Z,17.70
2023-01-27T13:01:41.620Z,18.30
2023-01-27T13:04:14.518Z,19.20
2023-01-27T13:06:50.105Z,18.30
2023-01-27T13:09:36.426Z,18.40
2023-01-27T13:12:30.438Z,16.90
2023-01-27T13:15:19.578Z,15.90
2023-01-27T13:17:49.709Z,18.10
2023-01-27T13:20:20.263Z,16.30
2023-01-27T13:23:17.855Z,16.30
2023-01-27T13:25:54.409Z,18.40
2023-01-27T13:28:51.202Z,17.10
2023-01-27T13:31:43.313Z,18.00
2023-01-27T13:34:41.872Z,17.30
2023-01-27T13:37:27.057Z,21.10
2023-01-27T13:39:58.576Z,16.30
2023-01-27T13:42:35.134Z,18.40
2023-01-27T13:45:13.220Z,20.60
2023-01-27T13:47:51.800Z,18.00
2023-01-27T13:50:42.674Z,18.20
2023-01-27T13:53:16.255Z,17.30
2023-01-27T13:56:09.261Z,21.30
2023-01-27T13:58:54.223Z,18.40
2023-01-27T14:02:00.834Z,18.10
2023-01-27T14:04:50.340Z,20.20
2023-01-27T14:07:29.361Z,23.60
2023-01-27T14:10:13.525Z,17.60
2023-01-27T14:13:04.044Z,21.00
2023-01-27T14:15:56.876Z,15.80
2023-01-27T14:18:53.031Z,15.00
2023-01-27T14:21:54.116Z,19.10
2023-01-27T14:24:45.411Z,21.10
2023-01-27T14:27:32.358Z,23.60
2023-01-27T14:30:08.724Z,21.30
2023-01-27T14:32:46.703Z,22.70
2023-01-27T14:35:27.339Z,21.00
2023-01-27T14:38:26.395Z,23.70
2023-01-27T14:41:10.729Z,21.30
2023-01-27T14:43:58.921Z,21.30
2023-01-27T14:46:51.007Z,25.60
2023-01-27T14:49:27.246Z,22.70
2023-01-27T14:52:26.923Z,19.50
2023-01-27T14:55:03.979Z,19.20
2023-01-27T14:57:39.051Z,18.80
2023-01-27T15:00:30.266Z,18.90
2023-01-27T15:03:24.774Z,18.40
2023-01-27T15:06:03.833Z,17.40
2023-01-27T15:09:06.775Z,18.30
2023-01-27T15:11:51.666Z,20.00
2023-01-27T15:15:03.919Z,21.00
2023-01-27T15:17:53.391Z,21.30
2023-01-27T15:20:32.311Z,22.10
2023-01-27T15:23:43.426Z,23.30
2023-01-27T15:26:12.430Z,23.10
2023-01-27T15:28:41.958Z,19.80
2023-01-27T15:31:20.323Z,20.90
2023-01-27T15:34:05.143Z,19.80
2023-01-27T15:36:36.062Z,20.70
2023-01-27T15:39:10.927Z,19.00
2023-01-27T15:42:04.187Z,21.50
2023-01-27T15:44:38.489Z,23.80
2023-01-27T15:47:13.541Z,25.30
2023-01-27T15:49:43.770Z,35.50
2023-01-27T15:52:23.932Z,49.30
2023-01-27T15:54:53.133Z,63.40
2023-01-27T15:57:29.114Z,92.60
2023-01-27T16:00:26.850Z,104.60
2023-01-27T16:02:55.275Z,75.30
2023-01-27T16:05:25.717Z,52.10
2023-01-27T16:08:11.281Z,65.20
2023-01-27T16:10:40.731Z,106.80
2023-01-27T16:13:26.275Z,94.30
2023-01-27T16:16:20.477Z,113.80
2023-01-27T16:19:05.224Z,100.00
2023-01-27T16:21:43.675Z,91.10
2023-01-27T16:24:20.606Z,112.20
2023-01-27T16:26:53.182Z,89.00
2023-01-27T16:29:26.933Z,85.40
2023-01-27T16:34:38.679Z,32.50
2023-01-27T16:37:16.605Z,27.80
2023-01-27T16:39:46.482Z,25.10
2023-01-27T16:42:16.124Z,22.10
2023-01-27T16:44:48.465Z,22.70
2023-01-27T16:47:50.623Z,24.60
2023-01-27T16:50:39.230Z,21.90
2023-01-27T16:53:21.204Z,21.90
2023-01-27T16:56:04.204Z,22.70
2023-01-27T16:58:45.470Z,22.90
2023-01-27T17:01:24.507Z,22.90
2023-01-27T17:04:10.795Z,22.60
2023-01-27T17:06:49.716Z,22.00
2023-01-27T17:09:27.263Z,20.50
2023-01-27T17:11:57.222Z,21.40
2023-01-27T17:14:31.771Z,21.60
2023-01-27T17:17:06.879Z,23.20
2023-01-27T17:19:36.353Z,23.40
2023-01-27T17:22:12.212Z,25.20
2023-01-27T17:24:47.385Z,22.70
2023-01-27T17:27:22.113Z,23.80
2023-01-27T17:29:52.597Z,23.50
2023-01-27T17:35:33.160Z,22.40
2023-01-27T17:38:12.987Z,23.90
2023-01-27T17:40:43.816Z,25.40
2023-01-27T17:43:35.846Z,22.00
2023-01-27T17:46:15.425Z,22.60
2023-01-27T17:48:56.347Z,21.80
2023-01-27T17:51:27.649Z,24.80
2023-01-27T17:53:56.310Z,23.90
2023-01-27T17:56:31.798Z,24.80
2023-01-27T17:59:06.797Z,35.40
2023-01-27T18:01:35.173Z,34.70
2023-01-27T18:04:04.297Z,32.80
2023-01-27T18:06:33.039Z,30.60
2023-01-27T18:09:06.278Z,28.10
2023-01-27T18:11:36.661Z,24.70
2023-01-27T18:14:16.822Z,22.80
2023-01-27T18:16:57.418Z,22.10
2023-01-27T18:19:32.323Z,19.80
2023-01-27T18:22:16.675Z,20.40
2023-01-27T18:24:54.881Z,20.90
2023-01-27T18:27:28.531Z,19.40
2023-01-27T18:30:06.740Z,18.90
2023-01-27T18:32:40.590Z,24.40
2023-01-27T18:35:38.562Z,28.40
2023-01-27T18:38:24.128Z,41.20
2023-01-27T18:40:53.395Z,35.90
2023-01-27T18:43:21.785Z,26.90
2023-01-27T18:45:50.764Z,25.00
2023-01-27T18:48:19.787Z,22.70
2023-01-27T18:50:48.846Z,24.50
2023-01-27T18:53:19.334Z,23.80
2023-01-27T18:55:52.799Z,22.20
2023-01-27T18:58:22.094Z,35.30
2023-01-27T19:00:54.166Z,34.40
2023-01-27T19:03:23.506Z,28.60
2023-01-27T19:05:52.335Z,28.60
2023-01-27T19:08:22.657Z,23.40
2023-01-27T19:10:52.028Z,19.90
2023-01-27T19:13:20.730Z,19.90
2023-01-27T19:15:51.263Z,20.40
2023-01-27T19:18:25.166Z,22.80
2023-01-27T19:20:55.461Z,21.20
2023-01-27T19:23:23.787Z,25.90
2023-01-27T19:25:57.390Z,29.40
2023-01-27T19:30:56.982Z,32.40
2023-01-27T19:33:26.027Z,44.30
2023-01-27T19:35:56.939Z,52.20
2023-01-27T19:38:26.396Z,29.10
2023-01-27T19:40:54.993Z,23.80
2023-01-27T19:43:23.612Z,25.70
2023-01-27T19:45:52.750Z,29.80
2023-01-27T19:48:22.971Z,28.80
2023-01-27T19:50:51.894Z,26.60
2023-01-27T19:53:24.845Z,24.20
2023-01-27T19:55:54.492Z,21.90
2023-01-27T19:58:28.019Z,25.20
2023-01-27T20:00:59.201Z,22.90
2023-01-27T20:03:28.319Z,22.00
2023-01-27T20:05:56.838Z,21.80
2023-01-27T20:08:29.355Z,21.50
2023-01-27T20:10:58.387Z,21.80
2023-01-27T20:13:26.828Z,23.30
2023-01-27T20:15:57.623Z,21.80
2023-01-27T20:18:26.160Z,20.80
2023-01-27T20:20:55.024Z,22.70
2023-01-27T20:23:23.643Z,24.70
2023-01-27T20:25:52.789Z,27.90
2023-01-27T20:28:21.961Z,43.10
2023-01-27T20:30:50.390Z,50.70
2023-01-27T20:33:18.730Z,50.00
2023-01-27T20:35:47.168Z,35.90
2023-01-27T20:38:15.718Z,40.50
2023-01-27T20:40:50.562Z,29.40
2023-01-27T20:43:33.596Z,28.10
2023-01-27T20:48:36.593Z,26.70
2023-01-27T20:51:07.486Z,31.50
2023-01-27T20:53:41.789Z,27.90
2023-01-27T20:56:10.337Z,35.50
2023-01-27T20:58:38.962Z,36.00
2023-01-27T21:01:16.411Z,38.10
2023-01-27T21:03:44.914Z,32.00
2023-01-27T21:06:14.179Z,29.10
2023-01-27T21:08:43.893Z,26.70
2023-01-27T21:11:16.316Z,27.80
2023-01-27T21:13:45.454Z,29.00
2023-01-27T21:16:14.158Z,27.70
2023-01-27T21:18:44.268Z,28.20
2023-01-27T21:21:39.527Z,25.60
2023-01-27T21:24:08.839Z,26.50
2023-01-27T21:26:38.347Z,25.50
2023-01-27T21:29:07.094Z,33.10
2023-01-27T21:31:35.904Z,33.70
2023-01-27T21:34:04.646Z,32.40
2023-01-27T21:36:33.440Z,27.00
2023-01-27T21:39:02.617Z,28.20
2023-01-27T21:41:49.990Z,31.80
2023-01-27T21:44:47.674Z,29.80
2023-01-27T21:47:17.662Z,31.10
2023-01-27T21:50:03.033Z,34.30
2023-01-27T21:52:39.720Z,34.30
2023-01-27T21:55:30.743Z,38.60
2023-01-27T21:57:59.275Z,35.60
2023-01-27T22:00:30.207Z,32.10
2023-01-27T22:03:00.664Z,35.20
2023-01-27T22:05:30.423Z,36.10
2023-01-27T22:08:01.831Z,37.70
2023-01-27T22:10:30.710Z,33.40
2023-01-27T22:13:00.532Z,34.40
2023-01-27T22:15:30.479Z,34.60
2023-01-27T22:17:59.162Z,32.40
2023-01-27T22:20:27.995Z,33.50
2023-01-27T22:22:56.358Z,32.90
2023-01-27T22:25:27.549Z,33.30
2023-01-27T22:27:56.732Z,33.30
2023-01-27T22:30:25.242Z,34.70
2023-01-27T22:32:54.850Z,31.40
2023-01-27T22:35:23.893Z,32.60
2023-01-27T22:37:53.338Z,33.80
2023-01-27T22:40:23.138Z,33.30
2023-01-27T22:42:51.845Z,40.60
2023-01-27T22:45:20.486Z,58.80
2023-01-27T22:47:49.999Z,45.30
2023-01-27T22:50:19.292Z,44.40
2023-01-27T22:52:48.182Z,45.70
2023-01-27T22:55:16.818Z,43.40
2023-01-27T22:57:45.504Z,42.90
2023-01-27T23:00:14.351Z,50.30
2023-01-27T23:02:42.886Z,41.70
2023-01-27T23:05:15.686Z,41.00
2023-01-27T23:07:46.541Z,36.30
2023-01-27T23:10:15.329Z,37.70
2023-01-27T23:12:44.294Z,33.30
2023-01-27T23:15:13.563Z,34.40
2023-01-27T23:17:42.527Z,30.90
2023-01-27T23:20:11.605Z,32.40
2023-01-27T23:22:40.183Z,28.20
2023-01-27T23:25:09.873Z,31.40
2023-01-27T23:27:39.676Z,32.60
2023-01-27T23:30:09.942Z,30.20
2023-01-27T23:32:40.625Z,30.50
2023-01-27T23:35:09.838Z,28.10
2023-01-27T23:37:38.615Z,27.10
2023-01-27T23:40:08.032Z,29.10
2023-01-27T23:42:37.413Z,28.80
2023-01-27T23:45:06.410Z,30.20
2023-01-27T23:47:34.792Z,28.50
2023-01-27T23:50:03.238Z,31.80
2023-01-27T23:52:34.836Z,31.30
2023-01-27T23:55:03.306Z,32.20
2023-01-27T23:57:32.049Z,32.10
